Time;durP1;ratioP1;P1;durP2;ratioP2;P2;SDS_P1;SDS_P2;PMS_P1;PMS_P2;Temp;Humidity;BMP_temperature;BMP_pressure;BME280_temperature;BME280_humidity;BME280_pressure;Samples;Min_cycle;Max_cycle;Signal;HPM_P1;HPM_P2
2021/09/18 14:12:52;;;;;;;2.10;1.60;;;28.80;42.80;;;;;;5100279;27;20838;-61
2021/09/18 14:15:19;;;;;;;2.17;1.60;;;27.90;48.50;;;;;;5074331;28;20566;-62
2021/09/18 14:17:46;;;;;;;2.97;1.55;;;27.60;47.40;;;;;;5069913;28;20054;-60
2021/09/18 14:20:13;;;;;;;2.22;1.60;;;27.30;49.20;;;;;;5054732;28;20108;-60
2021/09/18 14:22:40;;;;;;;4.43;2.80;;;27.00;47.40;;;;;;5074073;28;20052;-60
2021/09/18 14:25:07;;;;;;;2.80;2.08;;;26.70;49.40;;;;;;5074816;28;20127;-61
2021/09/18 14:27:33;;;;;;;3.28;1.90;;;26.50;49.20;;;;;;5076118;28;20048;-60
2021/09/18 14:30:01;;;;;;;2.22;1.50;;;26.40;48.80;;;;;;5078075;28;20130;-60
2021/09/18 14:32:28;;;;;;;3.22;2.10;;;26.20;48.60;;;;;;5086944;28;20123;-61
2021/09/18 14:34:54;;;;;;;3.83;1.85;;;26.00;50.00;;;;;;5095728;28;20082;-61
2021/09/18 14:37:22;;;;;;;2.85;1.88;;;25.90;50.20;;;;;;5096483;28;20127;-60
2021/09/18 14:39:49;;;;;;;1.75;1.50;;;25.80;50.80;;;;;;5094514;28;20097;-60
2021/09/18 14:42:15;;;;;;;2.42;1.70;;;25.70;50.40;;;;;;5095911;28;20040;-60
2021/09/18 14:44:42;;;;;;;4.45;1.98;;;25.70;51.10;;;;;;5077552;28;20079;-60
2021/09/18 14:47:09;;;;;;;3.00;1.80;;;25.60;50.90;;;;;;5091380;28;20131;-61
2021/09/18 14:49:36;;;;;;;4.90;1.75;;;25.60;50.90;;;;;;5095844;28;20144;-61
2021/09/18 14:52:03;;;;;;;4.10;1.90;;;25.70;50.70;;;;;;5095258;28;20109;-60
2021/09/18 14:54:29;;;;;;;2.83;1.65;;;25.80;50.20;;;;;;5094389;28;20071;-61
2021/09/18 14:56:56;;;;;;;2.25;1.70;;;25.70;49.70;;;;;;5095153;28;20052;-61
2021/09/18 14:59:23;;;;;;;4.63;2.67;;;25.70;49.20;;;;;;5076389;28;20101;-61
2021/09/18 15:01:50;;;;;;;3.00;2.00;;;25.80;50.40;;;;;;5094879;28;20196;-61
2021/09/18 15:04:17;;;;;;;2.45;1.58;;;26.00;50.70;;;;;;5077799;28;20044;-61
2021/09/18 15:06:43;;;;;;;4.80;3.08;;;26.10;49.20;;;;;;5095669;28;20056;-61
2021/09/18 15:09:10;;;;;;;2.28;1.92;;;26.60;50.50;;;;;;5093670;28;20044;-61
2021/09/18 15:11:38;;;;;;;3.28;1.98;;;26.70;49.30;;;;;;5094960;28;20083;-61
2021/09/18 15:14:05;;;;;;;2.78;2.17;;;26.80;49.30;;;;;;5077151;28;20154;-61
2021/09/18 15:16:32;;;;;;;3.17;2.17;;;26.80;49.60;;;;;;5094560;28;20048;-61
2021/09/18 15:18:59;;;;;;;2.53;1.83;;;26.70;49.10;;;;;;5095442;28;20051;-61
2021/09/18 15:21:25;;;;;;;2.63;2.00;;;26.60;48.90;;;;;;5095160;28;20134;-61
2021/09/18 15:23:52;;;;;;;2.40;1.73;;;26.50;48.90;;;;;;5083999;28;20047;-61
2021/09/18 15:26:19;;;;;;;3.20;2.20;;;26.30;48.90;;;;;;5081009;28;20477;-60
2021/09/18 15:28:45;;;;;;;2.90;2.10;;;26.00;48.70;;;;;;5081527;28;20048;-61
2021/09/18 15:31:12;;;;;;;3.53;2.20;;;25.80;50.00;;;;;;5081395;28;20047;-61
2021/09/18 15:33:39;;;;;;;1.90;1.58;;;25.60;50.20;;;;;;5079725;28;20454;-60
2021/09/18 15:36:06;;;;;;;1.90;1.50;;;25.60;50.10;;;;;;5063099;28;20054;-61
2021/09/18 15:38:33;;;;;;;3.15;1.92;;;25.50;50.50;;;;;;5062881;28;20075;-61
2021/09/18 15:41:00;;;;;;;1.85;1.60;;;25.40;50.70;;;;;;5081451;28;20051;-60
2021/09/18 15:43:29;;;;;;;4.35;1.73;;;25.40;50.40;;;;;;5079820;28;20065;-61
2021/09/18 15:45:55;;;;;;;4.60;2.30;;;25.40;50.50;;;;;;5062758;28;20083;-61
2021/09/18 15:48:22;;;;;;;4.90;1.80;;;25.30;50.80;;;;;;5080614;28;20135;-61
2021/09/18 15:50:49;;;;;;;6.53;1.85;;;25.30;50.50;;;;;;5080572;28;20056;-61
2021/09/18 15:53:16;;;;;;;2.70;1.80;;;25.20;50.70;;;;;;5079411;28;20076;-60
2021/09/18 15:55:43;;;;;;;2.65;1.70;;;25.10;51.10;;;;;;5078737;28;20068;-61
2021/09/18 15:58:09;;;;;;;3.92;2.08;;;25.10;51.60;;;;;;5087747;28;20517;-61
2021/09/18 16:00:36;;;;;;;2.13;1.58;;;24.90;50.30;;;;;;5082429;28;20079;-60
2021/09/18 16:03:03;;;;;;;3.03;1.67;;;24.80;51.00;;;;;;5080633;28;20044;-60
2021/09/18 16:05:31;;;;;;;2.47;1.60;;;24.80;51.60;;;;;;5088247;28;20043;-61
2021/09/18 16:07:57;;;;;;;4.57;2.20;;;24.70;50.60;;;;;;5079990;28;20056;-61
2021/09/18 16:10:24;;;;;;;5.07;2.30;;;24.60;51.80;;;;;;5079660;28;20043;-61
2021/09/18 16:12:51;;;;;;;2.55;1.75;;;24.60;52.10;;;;;;5080490;28;20139;-64
2021/09/18 16:15:18;;;;;;;3.28;2.38;;;24.60;51.50;;;;;;5078884;28;20736;-61
2021/09/18 16:17:44;;;;;;;4.07;1.90;;;24.50;51.90;;;;;;5080582;28;20087;-61
2021/09/18 16:20:12;;;;;;;2.40;1.45;;;24.50;51.90;;;;;;5081226;28;20052;-61
2021/09/18 16:22:39;;;;;;;3.22;1.90;;;24.30;51.80;;;;;;5079908;28;20084;-61
2021/09/18 16:25:06;;;;;;;3.05;1.88;;;24.20;52.10;;;;;;5061183;28;20506;-61
2021/09/18 16:27:34;;;;;;;2.40;1.77;;;24.20;52.10;;;;;;5063788;28;20055;-61
2021/09/18 16:30:03;;;;;;;5.43;2.08;;;24.20;52.70;;;;;;5079531;28;20056;-61
2021/09/18 16:32:30;;;;;;;4.38;1.80;;;24.10;52.50;;;;;;5079512;28;20495;-61
2021/09/18 16:34:57;;;;;;;5.13;2.00;;;24.00;51.90;;;;;;5060435;28;20060;-60
2021/09/18 16:37:24;;;;;;;2.20;1.70;;;23.90;51.60;;;;;;5062602;28;20052;-61
2021/09/18 16:39:50;;;;;;;4.20;1.60;;;23.80;51.90;;;;;;5080224;28;20123;-61
2021/09/18 16:42:19;;;;;;;5.85;3.85;;;23.60;52.10;;;;;;5081035;28;20094;-61
2021/09/18 16:44:45;;;;;;;3.92;2.75;;;23.60;53.30;;;;;;5057831;28;20601;-61
2021/09/18 16:47:13;;;;;;;4.13;3.05;;;23.50;53.00;;;;;;5078296;28;20079;-61
2021/09/18 16:49:40;;;;;;;5.47;2.67;;;23.60;53.60;;;;;;5080171;28;20079;-61
2021/09/18 16:52:06;;;;;;;2.33;1.80;;;23.60;53.30;;;;;;5080132;28;20134;-62
2021/09/18 16:54:33;;;;;;;2.25;1.85;;;23.50;53.10;;;;;;5078996;28;20044;-62
2021/09/18 16:57:00;;;;;;;4.07;2.55;;;23.30;52.90;;;;;;5080483;28;20155;-62
2021/09/18 16:59:27;;;;;;;2.75;2.20;;;23.20;53.70;;;;;;5079140;28;20127;-62
2021/09/18 17:01:56;;;;;;;2.58;1.98;;;23.10;54.60;;;;;;5079220;28;20048;-61
2021/09/18 17:04:23;;;;;;;4.47;2.53;;;23.00;54.70;;;;;;5059335;28;20055;-60
2021/09/18 17:06:50;;;;;;;2.90;2.13;;;22.90;55.10;;;;;;5079719;28;20513;-61
2021/09/18 17:09:16;;;;;;;2.47;2.25;;;22.80;55.10;;;;;;5078716;28;20139;-60
2021/09/18 17:11:43;;;;;;;3.53;2.55;;;22.70;55.50;;;;;;5079214;28;20138;-61
2021/09/18 17:14:10;;;;;;;4.05;2.22;;;22.60;55.80;;;;;;5078226;28;20169;-60
2021/09/18 17:16:37;;;;;;;2.78;2.17;;;22.50;56.10;;;;;;5042677;28;20048;-60
2021/09/18 17:19:04;;;;;;;4.38;2.00;;;22.40;56.20;;;;;;5041703;28;20132;-60
2021/09/18 17:21:31;;;;;;;4.57;2.53;;;22.30;56.70;;;;;;5048280;28;20091;-60
2021/09/18 17:23:57;;;;;;;4.82;3.13;;;22.20;56.60;;;;;;5038539;28;20128;-60
2021/09/18 17:26:24;;;;;;;5.35;3.33;;;22.10;57.30;;;;;;5038054;28;20128;-60
2021/09/18 17:28:51;;;;;;;4.78;3.40;;;22.00;57.70;;;;;;5037357;28;20136;-59
2021/09/18 17:31:17;;;;;;;6.75;3.17;;;21.90;57.90;;;;;;5033174;28;20411;-59
2021/09/18 17:33:45;;;;;;;5.80;2.80;;;21.80;58.50;;;;;;5034922;28;20067;-60
2021/09/18 17:36:12;;;;;;;6.50;2.85;;;21.70;59.00;;;;;;5037224;28;20128;-60
2021/09/18 17:38:39;;;;;;;3.97;2.38;;;21.50;59.50;;;;;;5035845;28;20115;-61
2021/09/18 17:41:06;;;;;;;3.35;2.50;;;21.40;59.80;;;;;;5036773;28;20661;-61
2021/09/18 17:43:35;;;;;;;4.05;3.10;;;21.30;60.90;;;;;;5035843;28;20134;-61
2021/09/18 17:46:02;;;;;;;4.25;3.10;;;21.20;61.20;;;;;;5039276;28;20114;-59
2021/09/18 17:48:28;;;;;;;9.30;6.03;;;21.10;61.90;;;;;;5039630;28;20097;-60
2021/09/18 17:50:55;;;;;;;12.45;8.80;;;21.00;62.50;;;;;;5040430;28;20087;-60
2021/09/18 17:53:23;;;;;;;14.13;9.73;;;20.90;63.50;;;;;;5039748;28;20088;-60
2021/09/18 17:55:50;;;;;;;15.93;8.93;;;20.80;63.00;;;;;;5040796;28;20503;-60
2021/09/18 17:58:17;;;;;;;19.63;12.15;;;20.80;64.00;;;;;;5022170;28;20580;-62
2021/09/18 18:00:44;;;;;;;17.75;12.38;;;20.70;64.20;;;;;;5039462;28;20721;-60
2021/09/18 18:03:11;;;;;;;19.73;11.82;;;20.60;64.90;;;;;;5040190;28;20052;-59
2021/09/18 18:05:38;;;;;;;22.70;13.60;;;20.50;65.60;;;;;;5040479;28;20049;-59
2021/09/18 18:08:05;;;;;;;17.83;11.98;;;20.40;65.60;;;;;;5040521;28;20127;-61
2021/09/18 18:10:32;;;;;;;19.08;11.70;;;20.40;66.30;;;;;;5040331;28;20213;-60
2021/09/18 18:12:59;;;;;;;19.85;11.18;;;20.30;67.10;;;;;;5022804;28;20099;-60
2021/09/18 18:15:26;;;;;;;14.70;9.73;;;20.20;66.70;;;;;;5040148;28;20079;-60
2021/09/18 18:17:53;;;;;;;15.68;9.75;;;20.20;66.90;;;;;;5022178;28;20106;-61
2021/09/18 18:20:19;;;;;;;12.50;8.27;;;20.10;67.40;;;;;;5040160;28;20456;-60
2021/09/18 18:22:46;;;;;;;12.70;7.32;;;20.10;67.70;;;;;;5040316;28;20091;-60
2021/09/18 18:25:13;;;;;;;9.57;6.95;;;20.00;67.60;;;;;;5039428;28;20081;-60
2021/09/18 18:27:40;;;;;;;8.13;6.55;;;20.00;68.40;;;;;;5040533;28;20128;-60
2021/09/18 18:30:08;;;;;;;8.02;5.88;;;20.00;68.40;;;;;;5049670;28;20123;-60
2021/09/18 18:32:35;;;;;;;9.98;5.88;;;19.90;69.00;;;;;;5059533;28;20084;-60
2021/09/18 18:35:02;;;;;;;9.63;6.00;;;19.90;69.30;;;;;;5060117;28;20636;-60
2021/09/18 18:37:29;;;;;;;6.47;5.25;;;19.90;69.50;;;;;;5042873;28;20136;-60
2021/09/18 18:39:56;;;;;;;8.13;5.38;;;19.90;69.90;;;;;;5059255;28;20134;-60
2021/09/18 18:42:23;;;;;;;7.50;5.45;;;19.80;70.00;;;;;;5060280;28;20078;-60
2021/09/18 18:44:50;;;;;;;6.70;4.75;;;19.80;71.10;;;;;;5059503;28;20084;-60
2021/09/18 18:47:16;;;;;;;7.28;4.93;;;19.80;70.90;;;;;;5042155;28;20053;-61
2021/09/18 18:49:43;;;;;;;9.32;4.68;;;19.70;71.40;;;;;;5060435;28;20088;-60
2021/09/18 18:52:10;;;;;;;6.88;4.32;;;19.70;71.70;;;;;;5059940;28;20052;-60
2021/09/18 18:54:39;;;;;;;6.78;4.25;;;19.60;71.60;;;;;;5051005;28;20095;-62
2021/09/18 18:57:09;;;;;;;5.63;4.30;;;19.60;71.60;;;;;;5040468;28;20061;-61
2021/09/18 18:59:36;;;;;;;6.30;4.35;;;19.60;72.50;;;;;;5043306;28;20591;-59
2021/09/18 19:02:03;;;;;;;5.43;4.45;;;19.50;72.30;;;;;;5041522;28;20516;-59
2021/09/18 19:04:31;;;;;;;5.43;3.90;;;19.50;72.70;;;;;;5042828;28;20103;-61
2021/09/18 19:06:58;;;;;;;7.45;4.38;;;19.50;72.70;;;;;;5044108;28;20053;-60
2021/09/18 19:09:25;;;;;;;9.45;4.68;;;19.50;72.90;;;;;;5025204;28;20091;-60
2021/09/18 19:11:51;;;;;;;7.55;5.07;;;19.40;73.00;;;;;;5043346;28;20084;-59
2021/09/18 19:14:18;;;;;;;5.75;4.18;;;19.40;73.10;;;;;;5043229;28;20132;-60
2021/09/18 19:16:45;;;;;;;7.07;4.72;;;19.30;73.20;;;;;;5042971;28;20283;-60
2021/09/18 19:19:12;;;;;;;7.22;4.97;;;19.30;73.10;;;;;;5043408;28;20052;-60
2021/09/18 19:21:38;;;;;;;10.25;5.78;;;19.30;73.50;;;;;;5043447;28;20127;-60
2021/09/18 19:24:05;;;;;;;11.80;5.85;;;19.30;73.90;;;;;;5042637;28;20080;-59
2021/09/18 19:26:32;;;;;;;11.57;6.78;;;19.20;74.20;;;;;;5043447;28;20206;-60
2021/09/18 19:28:59;;;;;;;10.85;6.93;;;19.10;74.50;;;;;;5043189;28;20471;-60
2021/09/18 19:31:25;;;;;;;12.13;8.13;;;19.10;74.20;;;;;;5063297;28;20491;-59
2021/09/18 19:33:52;;;;;;;8.77;7.40;;;19.10;74.40;;;;;;5062566;28;20660;-60
2021/09/18 19:36:21;;;;;;;10.13;7.03;;;19.10;74.40;;;;;;5063268;28;20107;-60
2021/09/18 19:38:48;;;;;;;10.02;6.95;;;19.00;74.80;;;;;;5062873;28;20796;-60
2021/09/18 19:41:15;;;;;;;11.35;6.32;;;19.00;74.80;;;;;;5062967;28;20123;-60
2021/09/18 19:43:41;;;;;;;8.80;5.53;;;18.90;74.70;;;;;;5062514;28;20141;-59
2021/09/18 19:46:08;;;;;;;8.43;6.50;;;18.90;74.90;;;;;;5063113;28;20587;-59
2021/09/18 19:48:35;;;;;;;10.00;6.78;;;18.90;75.10;;;;;;5062098;28;20053;-60
2021/09/18 19:51:02;;;;;;;7.75;6.05;;;18.90;75.70;;;;;;5063367;28;20131;-60
2021/09/18 19:53:32;;;;;;;9.50;6.50;;;18.90;75.90;;;;;;5061808;28;20504;-60
2021/09/18 19:55:59;;;;;;;9.30;6.20;;;18.90;76.00;;;;;;5045040;28;20136;-60
2021/09/18 19:58:26;;;;;;;8.98;6.05;;;18.90;75.80;;;;;;5042241;28;20156;-60
2021/09/18 20:00:53;;;;;;;11.35;8.05;;;18.90;75.90;;;;;;5041299;28;20405;-60
2021/09/18 20:03:20;;;;;;;14.57;10.45;;;18.80;75.70;;;;;;5041892;28;20106;-60
2021/09/18 20:05:47;;;;;;;15.00;10.27;;;18.80;74.50;;;;;;5042519;28;20060;-60
2021/09/18 20:08:13;;;;;;;12.10;9.50;;;18.90;74.50;;;;;;5042096;28;20059;-60
2021/09/18 20:10:40;;;;;;;12.68;10.10;;;18.80;74.40;;;;;;5042403;28;20114;-60
2021/09/18 20:13:07;;;;;;;11.25;8.43;;;18.80;74.40;;;;;;5042077;28;20060;-60
2021/09/18 20:15:34;;;;;;;13.85;9.02;;;18.90;73.60;;;;;;5042735;28;20073;-60
2021/09/18 20:18:01;;;;;;;17.23;9.80;;;18.90;73.40;;;;;;5041987;28;20130;-60
2021/09/18 20:20:27;;;;;;;13.50;8.32;;;18.90;73.80;;;;;;5042780;28;20064;-60
2021/09/18 20:22:54;;;;;;;12.48;8.50;;;18.90;73.70;;;;;;5042794;28;20451;-60
2021/09/18 20:25:21;;;;;;;13.43;8.60;;;18.90;73.70;;;;;;5041242;28;20110;-60
2021/09/18 20:27:47;;;;;;;11.23;8.57;;;18.80;73.90;;;;;;5041105;28;20099;-60
2021/09/18 20:30:14;;;;;;;13.43;8.88;;;18.80;74.60;;;;;;5051886;28;20473;-60
2021/09/18 20:32:43;;;;;;;12.35;8.63;;;18.80;74.30;;;;;;5061653;28;20727;-61
2021/09/18 20:35:10;;;;;;;13.68;8.45;;;18.80;74.20;;;;;;5062244;28;20084;-60
2021/09/18 20:37:37;;;;;;;10.02;7.38;;;18.80;74.20;;;;;;5061731;28;20592;-60
2021/09/18 20:40:05;;;;;;;10.77;7.43;;;18.80;74.40;;;;;;5061077;28;20123;-60
2021/09/18 20:42:32;;;;;;;12.43;7.72;;;18.80;74.30;;;;;;5062101;28;20152;-60
2021/09/18 20:44:58;;;;;;;10.05;7.20;;;18.80;73.90;;;;;;5060987;28;20160;-60
2021/09/18 20:47:25;;;;;;;12.90;7.32;;;18.80;74.30;;;;;;5061435;28;20115;-61
2021/09/18 20:49:52;;;;;;;10.82;7.22;;;18.80;74.50;;;;;;5062239;28;20083;-60
2021/09/18 20:52:19;;;;;;;8.63;7.05;;;18.80;74.50;;;;;;5061436;28;20136;-59
2021/09/18 20:54:45;;;;;;;10.80;6.47;;;18.70;74.70;;;;;;5060346;28;20175;-60
2021/09/18 20:57:12;;;;;;;8.65;7.28;;;18.70;74.80;;;;;;5061834;28;20712;-60
2021/09/18 20:59:44;;;;;;;9.35;7.13;;;18.70;75.00;;;;;;5061107;28;20140;-60
2021/09/18 21:04:45;;;;;;;10.60;8.13;;;18.60;75.40;;;;;;5043278;28;20053;-60
2021/09/18 21:07:12;;;;;;;12.55;8.57;;;18.60;75.90;;;;;;5040931;28;20060;-59
2021/09/18 21:09:39;;;;;;;11.00;8.10;;;18.50;76.00;;;;;;5041245;28;20056;-59
2021/09/18 21:12:07;;;;;;;11.18;7.95;;;18.50;75.90;;;;;;5040985;28;20052;-59
2021/09/18 21:14:34;;;;;;;8.60;7.50;;;18.50;76.00;;;;;;5040766;28;20076;-59
2021/09/18 21:17:00;;;;;;;26.45;7.47;;;18.50;76.30;;;;;;5040506;28;20120;-61
2021/09/18 21:19:27;;;;;;;9.38;7.45;;;18.50;76.50;;;;;;5040849;28;20080;-60
2021/09/18 21:21:54;;;;;;;11.38;7.78;;;18.40;76.50;;;;;;5040387;28;20081;-62
2021/09/18 21:24:21;;;;;;;10.10;7.20;;;18.40;76.50;;;;;;5037760;28;20071;-60
2021/09/18 21:26:48;;;;;;;11.50;8.13;;;18.40;76.70;;;;;;5039869;28;20053;-60
2021/09/18 21:29:15;;;;;;;13.27;7.55;;;18.40;76.90;;;;;;5042914;28;20468;-60
2021/09/18 21:31:42;;;;;;;9.95;7.90;;;18.40;76.90;;;;;;5058590;28;20060;-61
2021/09/18 21:34:09;;;;;;;8.25;6.97;;;18.40;76.80;;;;;;5040154;28;20095;-59
2021/09/18 21:36:35;;;;;;;11.23;7.35;;;18.40;76.70;;;;;;5023173;28;20150;-60
2021/09/18 21:39:03;;;;;;;9.40;7.30;;;18.40;77.00;;;;;;5039918;28;20136;-60
2021/09/18 21:41:30;;;;;;;10.13;7.53;;;18.40;77.20;;;;;;5040880;28;20127;-60
2021/09/18 21:43:57;;;;;;;9.20;6.88;;;18.40;77.30;;;;;;5040016;28;21081;-60
2021/09/18 21:46:25;;;;;;;8.75;7.68;;;18.40;77.50;;;;;;5040543;28;20832;-60
2021/09/18 21:48:53;;;;;;;8.13;6.70;;;18.30;77.60;;;;;;5040536;28;20052;-60
2021/09/18 21:51:20;;;;;;;11.15;7.65;;;18.30;77.90;;;;;;5023075;28;20049;-60
2021/09/18 21:53:47;;;;;;;16.35;8.00;;;18.30;77.60;;;;;;5039367;28;20096;-60
2021/09/18 21:56:14;;;;;;;10.05;8.50;;;18.30;78.30;;;;;;5040643;28;20075;-60
2021/09/18 21:58:41;;;;;;;17.10;9.77;;;18.30;78.50;;;;;;5040065;28;20144;-60
2021/09/18 22:01:19;;;;;;;19.25;10.40;;;18.20;78.40;;;;;;5038910;28;20123;-60
2021/09/18 22:03:48;;;;;;;12.60;10.65;;;18.20;79.50;;;;;;5039510;28;20045;-60
2021/09/18 22:06:14;;;;;;;13.82;9.95;;;18.20;79.00;;;;;;5040445;28;20409;-60
2021/09/18 22:08:41;;;;;;;15.05;10.40;;;18.20;79.00;;;;;;5021747;28;20091;-60
2021/09/18 22:11:08;;;;;;;11.80;9.85;;;18.20;79.10;;;;;;5022497;28;20057;-60
2021/09/18 22:13:35;;;;;;;10.30;8.45;;;18.20;79.10;;;;;;5039794;28;20053;-59
2021/09/18 22:16:02;;;;;;;11.18;9.27;;;18.20;79.10;;;;;;5023011;28;20096;-59
2021/09/18 22:18:29;;;;;;;10.45;8.77;;;18.20;79.20;;;;;;5039769;28;20136;-60
2021/09/18 22:20:55;;;;;;;10.73;8.85;;;18.10;79.50;;;;;;5040422;28;20452;-59
2021/09/18 22:23:22;;;;;;;10.50;9.48;;;18.10;79.70;;;;;;5038786;28;20156;-60
2021/09/18 22:25:49;;;;;;;11.70;7.93;;;18.10;79.60;;;;;;5039969;28;20080;-60
2021/09/18 22:28:16;;;;;;;11.05;8.77;;;18.10;80.00;;;;;;5039625;28;20543;-60
2021/09/18 22:30:42;;;;;;;10.80;8.88;;;18.10;80.30;;;;;;5050505;28;20129;-60
2021/09/18 22:33:09;;;;;;;12.55;8.80;;;18.10;80.10;;;;;;5040835;28;20049;-60
2021/09/18 22:35:36;;;;;;;11.55;8.30;;;18.00;80.00;;;;;;5043875;28;20548;-60
2021/09/18 22:38:03;;;;;;;13.68;8.95;;;18.00;80.20;;;;;;5044333;28;20460;-60
2021/09/18 22:40:29;;;;;;;11.23;8.93;;;17.90;80.70;;;;;;5043369;28;20100;-60
2021/09/18 22:42:56;;;;;;;11.40;9.20;;;17.90;80.70;;;;;;5043393;28;20128;-60
2021/09/18 22:45:23;;;;;;;10.02;9.10;;;17.80;81.20;;;;;;5042830;28;20128;-60
2021/09/18 22:47:50;;;;;;;11.13;9.93;;;17.80;81.50;;;;;;5042777;28;20132;-59
2021/09/18 22:50:16;;;;;;;12.15;9.43;;;17.80;81.30;;;;;;5043572;28;20045;-59
2021/09/18 22:52:43;;;;;;;11.32;9.00;;;17.80;81.60;;;;;;5044063;28;20095;-60
2021/09/18 22:55:10;;;;;;;13.55;10.13;;;17.80;82.00;;;;;;5043079;28;20163;-60
2021/09/18 22:57:37;;;;;;;11.90;9.63;;;17.70;81.90;;;;;;5043732;28;20095;-60
2021/09/18 23:00:06;;;;;;;11.85;9.95;;;17.70;82.10;;;;;;5042117;28;20738;-60
2021/09/18 23:02:32;;;;;;;12.02;9.50;;;17.60;82.10;;;;;;5023429;28;20080;-60
2021/09/18 23:05:00;;;;;;;11.25;9.48;;;17.60;82.40;;;;;;5042785;28;20518;-61
2021/09/18 23:07:28;;;;;;;13.05;10.73;;;17.60;82.60;;;;;;5042459;28;20041;-61
2021/09/18 23:09:55;;;;;;;12.73;11.05;;;17.50;83.00;;;;;;5041957;28;20837;-61
2021/09/18 23:12:23;;;;;;;14.07;10.70;;;17.40;83.20;;;;;;5042728;28;20158;-60
2021/09/18 23:14:50;;;;;;;13.70;10.50;;;17.30;83.60;;;;;;5042124;28;20133;-60
2021/09/18 23:17:18;;;;;;;12.20;10.43;;;17.30;83.70;;;;;;5041550;28;20045;-63
2021/09/18 23:19:44;;;;;;;12.30;10.60;;;17.20;83.60;;;;;;5042874;28;20135;-61
2021/09/18 23:22:11;;;;;;;12.00;10.02;;;17.10;84.10;;;;;;5043154;28;20632;-60
2021/09/18 23:24:38;;;;;;;12.20;10.18;;;17.10;84.10;;;;;;5041483;28;20658;-60
2021/09/18 23:27:08;;;;;;;11.18;10.00;;;17.00;84.30;;;;;;5042824;28;20420;-60
2021/09/18 23:29:35;;;;;;;10.75;9.50;;;17.00;84.20;;;;;;5041219;28;20135;-60
2021/09/18 23:32:01;;;;;;;13.32;10.05;;;16.90;84.80;;;;;;5042018;28;20543;-60
2021/09/18 23:34:28;;;;;;;12.55;9.90;;;16.90;85.00;;;;;;5042806;28;20057;-60
2021/09/18 23:36:55;;;;;;;11.27;9.45;;;16.80;85.00;;;;;;5042536;28;20140;-61
2021/09/18 23:39:22;;;;;;;15.57;10.65;;;16.80;85.80;;;;;;5043778;28;20087;-60
2021/09/18 23:41:49;;;;;;;14.30;9.90;;;16.70;86.30;;;;;;5043480;28;20083;-60
2021/09/18 23:44:15;;;;;;;12.40;10.13;;;16.60;86.10;;;;;;5025325;28;20136;-58
2021/09/18 23:46:42;;;;;;;11.90;9.88;;;16.50;86.30;;;;;;5043957;28;20076;-59
2021/09/18 23:49:09;;;;;;;13.52;11.02;;;16.50;86.80;;;;;;5042886;28;20475;-59
2021/09/18 23:51:36;;;;;;;12.75;11.15;;;16.40;87.00;;;;;;5043452;28;20045;-61
2021/09/18 23:54:02;;;;;;;13.50;10.15;;;16.40;87.00;;;;;;5042239;28;20128;-61
2021/09/18 23:56:29;;;;;;;11.68;10.27;;;16.40;87.60;;;;;;5044230;28;20049;-60
2021/09/18 23:58:56;;;;;;;15.63;11.77;;;16.30;87.10;;;;;;5043758;28;20595;-60
